Time;durP1;ratioP1;P1;durP2;ratioP2;P2;SDS_P1;SDS_P2;PMS_P1;PMS_P2;Temp;Humidity;BMP_temperature;BMP_pressure;BME280_temperature;BME280_humidity;BME280_pressure;Samples;Min_cycle;Max_cycle;Signal;HPM_P1;HPM_P2
2022/06/28 00:01:10;;;;;;;5.60;4.35;;;;;;;26.07;49.34;100556.03;5017398;28;20116;-71
2022/06/28 00:03:42;;;;;;;4.53;4.13;;;;;;;26.02;49.87;100559.13;5035353;28;20401;-71
2022/06/28 00:06:08;;;;;;;7.75;4.28;;;;;;;26.03;49.51;100554.59;5016056;28;20061;-70
2022/06/28 00:08:43;;;;;;;6.18;4.60;;;;;;;25.99;50.53;100559.38;5034907;28;20033;-70
2022/06/28 00:11:08;;;;;;;6.57;4.70;;;;;;;25.95;50.06;100557.94;4981282;28;20397;-71
2022/06/28 00:13:46;;;;;;;6.00;4.55;;;;;;;25.85;50.97;100550.72;5014972;28;20478;-71
2022/06/28 00:16:16;;;;;;;6.00;4.72;;;;;;;25.89;50.22;100554.88;5014909;28;20379;-70
2022/06/28 00:18:42;;;;;;;4.40;4.00;;;;;;;25.88;50.17;100553.19;5014870;28;20164;-69
2022/06/28 00:21:24;;;;;;;;;;;;;;;;;;;;;
2022/06/28 00:23:50;;;;;;;4.57;3.80;;;;;;;25.91;50.39;100550.25;5014809;28;20034;-70
2022/06/28 00:26:15;;;;;;;4.50;4.05;;;;;;;25.93;50.31;100554.53;4980962;28;20132;-71
2022/06/28 00:28:41;;;;;;;4.68;4.13;;;;;;;26.03;50.21;100551.91;5014449;28;20362;-69
2022/06/28 00:31:06;;;;;;;5.00;4.00;;;;;;;26.04;50.12;100550.91;5014586;28;20030;-71
2022/06/28 00:33:32;;;;;;;5.07;4.35;;;;;;;26.06;50.05;100554.34;5014661;28;20076;-71
2022/06/28 00:35:57;;;;;;;4.25;3.83;;;;;;;26.68;49.03;100561.63;5013318;28;20073;-72
2022/06/28 00:38:22;;;;;;;5.18;4.47;;;;;;;27.09;47.82;100554.47;5014789;28;20473;-71
2022/06/28 00:40:53;;;;;;;5.80;4.15;;;;;;;27.07;47.98;100559.13;5013202;28;20034;-70
2022/06/28 00:43:23;;;;;;;6.90;4.53;;;;;;;26.17;50.02;100559.69;5008476;28;20533;-71
2022/06/28 00:45:53;;;;;;;5.15;4.65;;;;;;;26.08;50.42;100552.38;5014270;28;20397;-71
2022/06/28 00:48:18;;;;;;;6.03;4.15;;;;;;;26.07;50.38;100561.44;5014776;28;20064;-71
2022/06/28 00:50:45;;;;;;;6.32;4.75;;;;;;;26.06;50.68;100550.81;4997427;28;20458;-72
2022/06/28 00:53:13;;;;;;;5.60;4.10;;;;;;;26.03;50.64;100551.91;4997503;28;20034;-70
2022/06/28 00:55:40;;;;;;;6.13;4.57;;;;;;;26.07;50.48;100558.75;5014992;28;20473;-71
2022/06/28 00:58:06;;;;;;;5.68;4.38;;;;;;;26.10;50.41;100558.50;5015032;28;20041;-71
2022/06/28 01:00:36;;;;;;;6.10;4.43;;;;;;;26.03;50.63;100555.44;5014360;28;20034;-69
2022/06/28 01:03:02;;;;;;;5.18;3.80;;;;;;;26.09;50.42;100554.06;5014493;28;20145;-70
2022/06/28 01:05:29;;;;;;;6.20;4.07;;;;;;;26.10;50.39;100552.25;4996609;28;20117;-71
2022/06/28 01:07:54;;;;;;;6.40;4.53;;;;;;;26.08;50.40;100552.38;4994942;28;20030;-72
2022/06/28 01:10:41;;;;;;;5.07;4.00;;;;;;;26.09;50.90;100547.81;5026348;28;20048;-71
2022/06/28 01:13:08;;;;;;;4.65;4.07;;;;;;;26.09;50.33;100540.59;5033220;28;20045;-69
2022/06/28 01:15:34;;;;;;;5.13;4.45;;;;;;;26.08;50.25;100549.66;5016103;28;20123;-71
2022/06/28 01:18:01;;;;;;;4.85;4.45;;;;;;;26.05;50.33;100544.53;5033241;28;20038;-71
2022/06/28 01:20:26;;;;;;;5.32;4.82;;;;;;;26.00;50.35;100546.75;5033237;28;20040;-71
2022/06/28 01:22:54;;;;;;;6.18;4.35;;;;;;;26.02;50.22;100550.19;5015695;28;20071;-71
2022/06/28 01:25:22;;;;;;;5.47;4.35;;;;;;;26.03;50.22;100550.06;5009625;28;20041;-71
2022/06/28 01:27:48;;;;;;;4.65;3.53;;;;;;;25.99;50.35;100551.31;5033104;28;20113;-72
2022/06/28 01:30:14;;;;;;;5.07;3.95;;;;;;;26.04;49.95;100550.91;5033278;28;20116;-71
2022/06/28 01:32:40;;;;;;;6.22;4.82;;;;;;;25.98;50.01;100546.06;5033311;28;20042;-72
2022/06/28 01:35:13;;;;;;;5.32;4.82;;;;;;;25.91;50.32;100548.41;5033017;28;20084;-71
2022/06/28 01:37:59;;;;;;;4.88;4.22;;;;;;;25.82;51.07;100554.56;5032637;28;20036;-71
2022/06/28 01:40:24;;;;;;;6.38;4.47;;;;;;;25.70;50.81;100553.69;5032627;28;20108;-72
2022/06/28 01:42:50;;;;;;;5.65;4.57;;;;;;;25.61;50.93;100543.66;5015410;28;20125;-71
2022/06/28 01:45:16;;;;;;;5.90;4.70;;;;;;;25.58;51.26;100549.31;5015516;28;20044;-72
2022/06/28 01:47:47;;;;;;;6.10;5.30;;;;;;;25.58;51.17;100549.31;5033071;28;20488;-73
2022/06/28 01:50:15;;;;;;;5.28;4.68;;;;;;;25.54;51.19;100543.34;5033158;28;20045;-72
2022/06/28 01:52:42;;;;;;;5.13;4.63;;;;;;;25.55;51.31;100552.25;5033746;28;20021;-71
2022/06/28 01:55:07;;;;;;;4.47;4.07;;;;;;;25.53;51.29;100551.50;5032940;28;20106;-71
2022/06/28 01:57:33;;;;;;;4.95;4.43;;;;;;;25.57;51.27;100558.34;5033597;28;20041;-72
2022/06/28 01:59:58;;;;;;;5.30;4.80;;;;;;;25.56;51.24;100556.66;5015138;28;20025;-72
2022/06/28 02:02:43;;;;;;;5.50;4.72;;;;;;;25.57;51.23;100555.66;5032856;28;20029;-72
2022/06/28 02:08:05;;;;;;;5.18;4.32;;;;;;;25.71;50.95;100560.78;4989730;28;20074;-71
2022/06/28 02:10:31;;;;;;;6.22;4.55;;;;;;;25.72;50.67;100557.09;5032570;28;20107;-71
2022/06/28 02:13:05;;;;;;;6.68;4.65;;;;;;;25.76;50.83;100563.09;4998417;28;20034;-70
2022/06/28 02:15:30;;;;;;;5.82;4.85;;;;;;;25.78;50.50;100561.16;5027775;28;20034;-70
2022/06/28 02:17:59;;;;;;;5.38;4.57;;;;;;;25.83;50.50;100555.41;5032403;28;20033;-72
2022/06/28 02:20:28;;;;;;;5.25;4.70;;;;;;;25.84;50.53;100559.78;5009427;28;20099;-72
2022/06/28 02:22:53;;;;;;;4.70;4.30;;;;;;;25.86;50.40;100565.91;5015319;28;20037;-72
2022/06/28 02:25:19;;;;;;;6.15;4.80;;;;;;;25.89;50.56;100569.19;5032318;28;20033;-72
2022/06/28 02:28:05;;;;;;;5.82;4.38;;;;;;;25.94;50.74;100567.00;5032322;28;20366;-72
2022/06/28 02:30:30;;;;;;;6.30;4.53;;;;;;;25.94;50.29;100572.38;5042178;28;20460;-70
2022/06/28 02:32:55;;;;;;;4.90;4.25;;;;;;;25.99;50.11;100563.91;5032078;28;20109;-71
2022/06/28 02:41:07;;;;;;;6.40;4.93;;;;;;;26.07;49.90;100556.03;5032420;28;20559;-72
2022/06/28 02:43:32;;;;;;;5.43;4.93;;;;;;;26.04;49.95;100551.75;5012937;28;20120;-71
2022/06/28 02:45:58;;;;;;;5.97;4.60;;;;;;;26.12;50.11;100569.13;5014483;28;20451;-73
2022/06/28 02:48:23;;;;;;;6.13;4.95;;;;;;;26.10;50.06;100563.88;5014784;28;20477;-72
2022/06/28 02:50:49;;;;;;;5.53;4.47;;;;;;;26.13;50.07;100566.31;5014460;28;20037;-71
2022/06/28 02:53:14;;;;;;;5.85;4.68;;;;;;;26.10;50.11;100563.88;4998120;28;20042;-71
2022/06/28 02:55:40;;;;;;;7.30;4.93;;;;;;;26.07;50.25;100563.28;5032369;28;20112;-72
2022/06/28 02:58:05;;;;;;;6.13;4.95;;;;;;;26.11;50.25;100565.56;5032175;28;20111;-73
2022/06/28 03:00:31;;;;;;;5.55;4.93;;;;;;;26.11;50.12;100559.34;5017279;28;20034;-72
2022/06/28 03:02:57;;;;;;;5.25;4.00;;;;;;;26.13;50.15;100565.44;5018144;28;20464;-70
2022/06/28 03:05:23;;;;;;;6.43;4.53;;;;;;;26.17;50.01;100559.69;5035854;28;20046;-72
2022/06/28 03:07:49;;;;;;;6.05;4.40;;;;;;;26.26;49.73;100560.75;5018129;28;20095;-71
2022/06/28 03:10:18;;;;;;;7.38;5.00;;;;;;;26.29;49.68;100555.06;5036031;28;20048;-71
2022/06/28 03:12:43;;;;;;;4.78;4.00;;;;;;;26.34;49.36;100546.63;5035974;28;20095;-72
2022/06/28 03:15:09;;;;;;;5.78;4.65;;;;;;;26.44;49.10;100552.94;5035710;28;20041;-72
2022/06/28 03:17:34;;;;;;;6.03;4.10;;;;;;;26.55;48.99;100554.75;5035856;28;20029;-71
2022/06/28 03:20:00;;;;;;;5.95;4.80;;;;;;;26.65;48.69;100548.44;5017797;28;20037;-72
2022/06/28 03:22:25;;;;;;;6.78;4.68;;;;;;;26.71;48.53;100555.97;5018246;28;20041;-72
2022/06/28 03:24:51;;;;;;;5.53;4.68;;;;;;;26.81;48.21;100555.16;5035578;28;20029;-71
2022/06/28 03:27:16;;;;;;;6.97;4.28;;;;;;;26.91;47.91;100548.00;5035810;28;20440;-71
2022/06/28 03:29:42;;;;;;;5.45;4.93;;;;;;;27.00;47.81;100541.78;5018074;28;20033;-71
2022/06/28 03:32:07;;;;;;;5.85;4.22;;;;;;;27.10;47.46;100541.84;5035375;28;20440;-70
2022/06/28 03:34:33;;;;;;;4.45;4.03;;;;;;;27.22;47.22;100541.63;5035590;28;20104;-70
2022/06/28 03:36:59;;;;;;;6.53;4.28;;;;;;;27.30;46.90;100532.03;5035068;28;20033;-70
2022/06/28 03:39:24;;;;;;;5.78;4.25;;;;;;;27.43;46.71;100538.00;5034967;28;20065;-72
2022/06/28 03:41:50;;;;;;;5.93;4.43;;;;;;;27.52;46.42;100542.56;5017608;28;20041;-71
2022/06/28 03:44:15;;;;;;;4.97;3.83;;;;;;;27.58;46.35;100539.31;5035218;28;20112;-72
2022/06/28 03:46:41;;;;;;;5.60;4.50;;;;;;;27.65;46.17;100536.91;5035754;28;20029;-73
2022/06/28 03:49:06;;;;;;;5.32;4.82;;;;;;;27.75;45.98;100530.56;5035213;28;20036;-72
2022/06/28 03:51:32;;;;;;;4.90;3.60;;;;;;;27.88;45.27;100542.94;5034991;28;20037;-72
2022/06/28 03:53:58;;;;;;;7.35;4.00;;;;;;;27.97;45.33;100528.63;5034839;28;20417;-72
2022/06/28 03:56:24;;;;;;;4.22;3.85;;;;;;;28.08;45.05;100541.09;5011357;28;20128;-72
2022/06/28 03:58:49;;;;;;;5.30;3.83;;;;;;;28.25;44.71;100532.31;5034946;28;20116;-71
2022/06/28 04:01:14;;;;;;;5.57;4.18;;;;;;;28.39;44.32;100533.72;5034755;28;20041;-70
2022/06/28 04:03:40;;;;;;;5.18;4.15;;;;;;;28.54;43.91;100543.09;5034042;28;20045;-71
2022/06/28 04:06:05;;;;;;;5.57;4.20;;;;;;;28.65;43.86;100540.22;5034779;28;20045;-71
2022/06/28 04:08:31;;;;;;;4.38;3.97;;;;;;;28.79;43.51;100540.75;5035173;28;20034;-70
2022/06/28 04:11:16;;;;;;;4.15;3.75;;;;;;;29.00;43.19;100537.84;5033600;28;20054;-70
2022/06/28 04:13:46;;;;;;;6.15;4.03;;;;;;;29.09;43.12;100543.25;5030403;28;20052;-71
2022/06/28 04:16:13;;;;;;;4.13;3.47;;;;;;;29.21;42.79;100536.63;5029766;28;20041;-72
2022/06/28 04:18:38;;;;;;;4.80;4.40;;;;;;;29.29;42.66;100537.75;5015817;28;20105;-72
2022/06/28 04:21:04;;;;;;;4.43;3.65;;;;;;;29.34;42.41;100535.44;5029655;28;20057;-74
2022/06/28 04:23:29;;;;;;;4.05;3.65;;;;;;;29.46;42.42;100539.63;5032446;28;20412;-72
2022/06/28 04:25:57;;;;;;;3.60;3.30;;;;;;;29.49;42.09;100533.94;5033265;28;20033;-72
2022/06/28 04:28:23;;;;;;;5.82;3.70;;;;;;;29.54;42.17;100538.88;5033577;28;20384;-72
2022/06/28 04:30:48;;;;;;;8.18;4.05;;;;;;;29.56;41.83;100535.00;5031580;28;20108;-71
2022/06/28 04:33:14;;;;;;;3.60;3.30;;;;;;;29.54;42.23;100528.91;5034922;28;20041;-72
2022/06/28 04:35:39;;;;;;;6.57;4.00;;;;;;;29.66;42.14;100535.84;5038327;28;20037;-72
2022/06/28 04:38:05;;;;;;;5.50;3.72;;;;;;;29.66;41.83;100540.41;5017682;28;20056;-73
2022/06/28 04:40:30;;;;;;;4.40;3.55;;;;;;;29.81;41.54;100533.47;5034927;28;20033;-72
2022/06/28 04:42:56;;;;;;;4.00;3.63;;;;;;;29.89;41.57;100529.97;5034435;28;20037;-72
2022/06/28 04:45:21;;;;;;;6.32;3.72;;;;;;;29.91;41.62;100536.06;5034269;28;20113;-71
2022/06/28 04:47:47;;;;;;;5.43;3.80;;;;;;;30.04;41.46;100539.25;5034140;28;20041;-71
2022/06/28 04:50:13;;;;;;;5.80;3.33;;;;;;;30.21;41.03;100539.44;5033323;28;20116;-70
2022/06/28 04:52:39;;;;;;;5.05;3.72;;;;;;;30.38;40.80;100541.25;5033611;28;20453;-68
2022/06/28 04:55:04;;;;;;;6.07;4.20;;;;;;;30.45;40.65;100536.06;5032271;28;20037;-71
2022/06/28 04:57:30;;;;;;;6.20;4.10;;;;;;;30.56;40.04;100533.09;4995337;28;20037;-71
2022/06/28 04:59:57;;;;;;;5.00;3.53;;;;;;;30.61;40.04;100536.19;5030315;28;20480;-70
2022/06/28 05:02:22;;;;;;;4.40;4.00;;;;;;;30.64;40.14;100534.00;4996732;28;20068;-70
2022/06/28 05:04:48;;;;;;;3.85;3.42;;;;;;;30.67;40.07;100538.25;5013272;28;20053;-71
2022/06/28 05:07:13;;;;;;;3.95;3.55;;;;;;;30.72;39.90;100533.22;5015573;28;20427;-70
2022/06/28 05:09:40;;;;;;;5.63;3.20;;;;;;;30.87;39.68;100538.91;5032771;28;20557;-70
2022/06/28 05:12:06;;;;;;;4.60;3.70;;;;;;;30.87;39.72;100530.78;5033168;28;20421;-70
2022/06/28 05:14:31;;;;;;;3.88;3.35;;;;;;;31.01;39.55;100521.19;5031798;28;20037;-70
2022/06/28 05:16:57;;;;;;;5.15;4.00;;;;;;;31.14;39.32;100525.16;5012172;28;20120;-71
2022/06/28 05:19:22;;;;;;;3.92;3.08;;;;;;;31.30;39.39;100537.13;5033364;28;20033;-71
2022/06/28 05:21:48;;;;;;;4.93;3.50;;;;;;;31.42;39.29;100530.38;5015004;28;20144;-72
2022/06/28 05:24:13;;;;;;;4.20;3.50;;;;;;;31.45;39.20;100529.22;5033892;28;20367;-70
2022/06/28 05:26:38;;;;;;;8.15;3.80;;;;;;;31.49;39.04;100525.16;5015740;28;20029;-71
2022/06/28 05:29:04;;;;;;;4.55;3.25;;;;;;;31.58;39.04;100525.00;5033308;28;20026;-71
2022/06/28 05:31:29;;;;;;;5.70;4.03;;;;;;;31.75;38.61;100531.31;5032702;28;20044;-72
2022/06/28 05:33:55;;;;;;;4.72;3.78;;;;;;;31.70;38.79;100535.53;5031982;28;20045;-70
2022/06/28 05:36:21;;;;;;;5.65;3.55;;;;;;;31.74;38.59;100529.59;5016611;28;20117;-69
2022/06/28 05:38:47;;;;;;;4.00;3.60;;;;;;;31.69;38.72;100536.56;5016826;28;20489;-69
2022/06/28 05:41:13;;;;;;;4.05;3.50;;;;;;;31.77;38.92;100550.16;5031986;28;20056;-69
2022/06/28 05:43:38;;;;;;;4.45;3.60;;;;;;;31.75;38.56;100560.34;5032537;28;20108;-69
2022/06/28 05:46:04;;;;;;;5.07;3.55;;;;;;;31.81;38.89;100555.09;5032873;28;20040;-69
2022/06/28 05:48:29;;;;;;;4.55;4.15;;;;;;;31.83;38.94;100541.34;5032261;28;20413;-69
2022/06/28 05:50:54;;;;;;;5.28;3.33;;;;;;;31.88;38.93;100539.03;5015020;28;20037;-69
2022/06/28 05:53:20;;;;;;;5.85;3.85;;;;;;;32.00;38.47;100545.81;5031832;28;20036;-69
2022/06/28 05:55:45;;;;;;;8.48;4.05;;;;;;;32.19;38.50;100549.22;5032225;28;20152;-70
2022/06/28 05:58:10;;;;;;;6.63;3.90;;;;;;;32.31;38.02;100548.69;5038944;28;20420;-70
2022/06/28 06:00:37;;;;;;;7.18;4.18;;;;;;;32.38;38.17;100552.44;5021240;28;20037;-68
2022/06/28 06:03:04;;;;;;;5.15;4.00;;;;;;;32.37;38.18;100549.91;5048831;28;20163;-70
2022/06/28 06:05:29;;;;;;;5.03;3.50;;;;;;;32.49;37.83;100550.44;5033136;28;20524;-67
2022/06/28 06:07:54;;;;;;;8.82;3.65;;;;;;;32.59;37.86;100541.06;5012730;28;20152;-70
2022/06/28 06:10:20;;;;;;;5.78;3.90;;;;;;;32.61;37.46;100540.91;5028980;28;20049;-69
2022/06/28 06:12:46;;;;;;;4.57;3.42;;;;;;;32.68;37.54;100541.06;5014871;28;20045;-71
2022/06/28 06:15:11;;;;;;;8.05;4.15;;;;;;;32.63;37.95;100539.69;5030448;28;20108;-70
2022/06/28 06:17:37;;;;;;;6.68;4.05;;;;;;;32.59;38.01;100541.06;5031351;28;20041;-69
2022/06/28 06:20:03;;;;;;;6.65;4.13;;;;;;;32.57;37.96;100531.41;5008704;28;20052;-69
2022/06/28 06:22:32;;;;;;;5.22;3.35;;;;;;;32.69;37.53;100529.16;5029740;28;20041;-68
2022/06/28 06:24:58;;;;;;;7.03;4.20;;;;;;;32.93;37.35;100537.28;5028588;28;20115;-68
2022/06/28 06:27:23;;;;;;;7.53;4.50;;;;;;;32.97;37.21;100541.38;5013792;28;20042;-70
2022/06/28 06:29:49;;;;;;;8.75;4.22;;;;;;;32.90;37.31;100542.19;5001828;28;20030;-71
2022/06/28 06:32:16;;;;;;;8.30;4.03;;;;;;;32.88;37.34;100542.38;5018494;28;20056;-72
2022/06/28 06:34:42;;;;;;;6.43;4.00;;;;;;;32.92;37.56;100551.06;5024765;28;20038;-73
2022/06/28 06:37:07;;;;;;;6.88;3.63;;;;;;;32.94;37.38;100562.63;5006834;28;20021;-69
2022/06/28 06:39:34;;;;;;;7.68;3.97;;;;;;;33.00;37.26;100559.22;5033262;28;20029;-72
2022/06/28 06:41:59;;;;;;;9.10;4.35;;;;;;;33.07;37.25;100566.47;5025941;28;20049;-73
2022/06/28 06:44:26;;;;;;;9.10;4.45;;;;;;;32.92;37.87;100573.66;5035583;28;20045;-74
2022/06/28 06:46:51;;;;;;;6.15;4.57;;;;;;;32.44;38.52;100580.00;5003001;28;20029;-74
2022/06/28 06:49:17;;;;;;;5.22;4.70;;;;;;;32.04;39.02;100577.06;5017992;28;20447;-73
2022/06/28 06:51:44;;;;;;;4.70;4.10;;;;;;;32.05;39.02;100567.06;5036305;28;20026;-73
2022/06/28 06:54:12;;;;;;;6.25;4.32;;;;;;;32.18;38.77;100569.28;5018139;28;20382;-74
2022/06/28 06:56:38;;;;;;;5.68;4.28;;;;;;;32.36;38.53;100575.41;5015978;28;20477;-71
2022/06/28 06:59:07;;;;;;;7.43;4.00;;;;;;;32.57;38.36;100574.91;5035910;28;20034;-73
2022/06/28 07:01:34;;;;;;;6.18;4.38;;;;;;;32.81;37.77;100580.31;5035285;28;20033;-72
2022/06/28 07:04:01;;;;;;;6.53;4.43;;;;;;;33.04;36.98;100577.75;5035667;28;20071;-74
2022/06/28 07:06:26;;;;;;;4.30;3.90;;;;;;;33.21;36.86;100577.69;5035635;28;20072;-75
2022/06/28 07:08:52;;;;;;;4.75;4.35;;;;;;;33.36;36.09;100581.38;5034653;28;20065;-74
2022/06/28 07:11:18;;;;;;;6.20;4.22;;;;;;;33.47;35.91;100583.72;5035971;28;20042;-71
2022/06/28 07:13:46;;;;;;;4.53;4.03;;;;;;;33.45;36.06;100585.78;5018030;28;20025;-73
2022/06/28 07:16:14;;;;;;;5.90;4.75;;;;;;;33.41;35.75;100594.47;5017461;28;20397;-72
2022/06/28 07:18:40;;;;;;;7.05;4.10;;;;;;;33.34;35.88;100595.16;5017533;28;20033;-71
2022/06/28 07:21:05;;;;;;;5.25;3.88;;;;;;;33.61;35.60;100598.47;5035298;28;20083;-71
2022/06/28 07:23:30;;;;;;;5.32;4.78;;;;;;;33.92;35.17;100616.72;5033763;28;20761;-70
2022/06/28 07:25:56;;;;;;;6.00;4.63;;;;;;;34.04;34.71;100610.69;5017388;28;20041;-73
2022/06/28 07:28:25;;;;;;;6.63;5.03;;;;;;;33.86;34.74;100599.19;4997472;28;20088;-73
2022/06/28 07:30:51;;;;;;;5.60;5.10;;;;;;;33.90;34.75;100600.53;5035224;28;20043;-73
2022/06/28 07:33:16;;;;;;;5.15;4.72;;;;;;;34.19;34.43;100601.72;5035498;28;20037;-73
2022/06/28 07:35:42;;;;;;;7.78;5.40;;;;;;;34.37;34.05;100591.38;5033576;28;20042;-72
2022/06/28 07:38:07;;;;;;;5.30;4.82;;;;;;;34.49;33.78;100586.34;5035741;28;20029;-75
2022/06/28 07:40:33;;;;;;;6.07;5.00;;;;;;;34.26;34.20;100583.63;5034471;28;20128;-73
2022/06/28 07:42:59;;;;;;;6.63;5.22;;;;;;;33.97;34.78;100577.00;5000337;28;20456;-74
2022/06/28 07:45:24;;;;;;;6.68;5.97;;;;;;;33.45;35.38;100583.06;5034017;28;20037;-71
2022/06/28 07:47:50;;;;;;;7.70;5.18;;;;;;;33.54;35.41;100590.16;5016722;28;20119;-74
2022/06/28 07:53:06;;;;;;;6.85;5.18;;;;;;;33.54;35.25;100608.38;5031841;28;20044;-74
2022/06/28 07:55:32;;;;;;;6.97;5.38;;;;;;;33.70;34.77;100615.63;5035350;28;20037;-74
2022/06/28 07:57:58;;;;;;;6.38;5.53;;;;;;;33.33;35.63;100626.13;5032932;28;20033;-75
2022/06/28 08:00:24;;;;;;;6.72;5.72;;;;;;;32.84;35.96;100622.66;5015775;28;20136;-73
2022/06/28 08:02:50;;;;;;;7.82;5.65;;;;;;;32.49;36.40;100622.00;5031728;28;20037;-72
2022/06/28 08:05:16;;;;;;;11.13;5.72;;;;;;;32.53;36.39;100636.09;5032533;28;20465;-74
2022/06/28 08:07:42;;;;;;;7.90;5.55;;;;;;;32.58;36.37;100631.84;5032311;28;20039;-74
2022/06/28 08:10:09;;;;;;;6.75;6.05;;;;;;;32.66;36.72;100649.19;5034385;28;20107;-73
2022/06/28 08:12:35;;;;;;;7.40;6.03;;;;;;;32.65;36.51;100652.94;5033900;28;20386;-73
2022/06/28 08:15:01;;;;;;;7.70;6.53;;;;;;;32.61;36.79;100655.97;5015866;28;20092;-73
2022/06/28 08:17:26;;;;;;;9.05;6.60;;;;;;;32.50;36.77;100656.31;5016453;28;20052;-67
2022/06/28 08:19:52;;;;;;;6.97;6.20;;;;;;;32.55;36.95;100669.41;5016652;28;20072;-74
2022/06/28 08:22:19;;;;;;;9.00;6.53;;;;;;;32.53;36.98;100676.88;5032691;28;20079;-72
2022/06/28 08:24:44;;;;;;;7.97;7.00;;;;;;;32.48;37.22;100662.97;5015741;28;20413;-72
2022/06/28 08:27:10;;;;;;;8.10;5.88;;;;;;;32.45;37.21;100671.44;5015380;28;20034;-72
2022/06/28 08:29:35;;;;;;;8.20;7.40;;;;;;;32.28;37.50;100671.38;5001064;28;20068;-74
2022/06/28 08:32:02;;;;;;;8.18;7.38;;;;;;;32.25;37.46;100673.59;5035069;28;20055;-75
2022/06/28 08:34:31;;;;;;;9.75;7.47;;;;;;;32.16;37.69;100674.56;5000893;28;20144;-75
2022/06/28 08:36:56;;;;;;;7.07;6.03;;;;;;;32.32;37.56;100669.19;5016996;28;20034;-72
2022/06/28 08:39:22;;;;;;;7.85;7.05;;;;;;;32.23;37.47;100664.75;5033863;28;20037;-74
2022/06/28 08:41:48;;;;;;;7.15;6.43;;;;;;;32.60;36.81;100662.44;5032488;28;20048;-73
2022/06/28 08:44:17;;;;;;;9.18;6.88;;;;;;;32.44;37.41;100684.19;5034847;28;20040;-74
2022/06/28 08:46:50;;;;;;;8.05;7.03;;;;;;;32.67;37.01;100683.50;5017516;28;20120;-74
2022/06/28 08:49:25;;;;;;;7.03;6.32;;;;;;;32.61;37.29;100685.91;5015254;28;20678;-73
2022/06/28 08:51:52;;;;;;;7.72;7.03;;;;;;;32.59;37.17;100698.81;5017155;28;20036;-75
2022/06/28 08:54:22;;;;;;;7.72;6.88;;;;;;;32.87;36.75;100687.59;5016293;28;20175;-72
2022/06/28 08:56:49;;;;;;;7.25;6.55;;;;;;;32.95;36.78;100676.72;5033673;28;20048;-75
2022/06/28 08:59:15;;;;;;;8.50;6.72;;;;;;;32.97;36.73;100680.16;5034645;28;20092;-75
2022/06/28 09:01:41;;;;;;;8.20;7.40;;;;;;;33.18;36.24;100681.47;5016944;28;20112;-74
2022/06/28 09:04:09;;;;;;;8.73;7.45;;;;;;;33.37;36.21;100675.66;5034027;28;20080;-74
2022/06/28 09:06:35;;;;;;;7.45;6.63;;;;;;;33.51;35.75;100677.66;5017278;28;20045;-75
2022/06/28 09:09:02;;;;;;;7.88;7.07;;;;;;;33.67;36.28;100681.38;5015981;28;20021;-75
2022/06/28 09:11:44;;;;;;;9.00;7.63;;;;;;;33.41;35.89;100687.91;5016665;28;20045;-73
2022/06/28 09:14:27;;;;;;;9.40;7.30;;;;;;;33.53;36.29;100670.19;5032637;28;20029;-75
2022/06/28 09:16:54;;;;;;;15.25;7.18;;;;;;;33.41;35.96;100659.81;5034544;28;20034;-72
2022/06/28 09:19:38;;;;;;;9.65;7.57;;;;;;;33.48;35.81;100666.31;5016810;28;20029;-72
2022/06/28 09:22:04;;;;;;;7.82;6.85;;;;;;;33.65;35.97;100661.63;5034227;28;20045;-72
2022/06/28 09:24:30;;;;;;;9.27;7.25;;;;;;;33.83;35.47;100665.81;5034206;28;20124;-75
2022/06/28 09:27:05;;;;;;;6.95;6.35;;;;;;;34.05;35.33;100668.78;5016434;28;20040;-74
2022/06/28 09:29:50;;;;;;;7.53;6.78;;;;;;;34.39;34.24;100668.38;5034387;28;20469;-73
2022/06/28 09:32:26;;;;;;;10.57;7.28;;;;;;;34.00;35.18;100674.78;5015825;28;20107;-68
2022/06/28 09:35:03;;;;;;;8.13;7.35;;;;;;;34.23;34.75;100671.22;5034169;28;20025;-71
2022/06/28 09:37:38;;;;;;;9.32;6.88;;;;;;;34.27;34.79;100661.66;5034049;28;20030;-72
2022/06/28 09:40:32;;;;;;;8.38;7.03;;;;;;;34.05;35.32;100663.34;5034079;28;20469;-71
2022/06/28 09:43:09;;;;;;;10.38;6.55;;;;;;;34.09;35.54;100661.94;4987388;28;20048;-73
2022/06/28 09:45:39;;;;;;;9.50;6.75;;;;;;;33.99;35.85;100661.31;5049053;28;20033;-73
2022/06/28 09:48:06;;;;;;;8.50;7.25;;;;;;;34.19;35.40;100645.34;5033841;28;20042;-73
2022/06/28 09:50:34;;;;;;;9.95;6.80;;;;;;;33.75;35.97;100657.66;5049325;28;20029;-73
2022/06/28 09:53:01;;;;;;;8.88;7.07;;;;;;;33.41;36.97;100641.59;5033837;28;20068;-73
2022/06/28 09:55:29;;;;;;;8.25;7.28;;;;;;;33.44;36.85;100640.41;5033239;28;20033;-72
2022/06/28 09:57:55;;;;;;;7.80;7.03;;;;;;;32.62;38.60;100638.63;5033474;28;20044;-73
2022/06/28 10:00:21;;;;;;;9.95;6.50;;;;;;;32.41;39.06;100638.31;5033466;28;20037;-73
2022/06/28 10:02:48;;;;;;;9.98;6.15;;;;;;;32.26;39.37;100648.09;5016116;28;20056;-73
2022/06/28 10:05:14;;;;;;;8.18;6.18;;;;;;;32.14;38.70;100647.56;5026345;28;20072;-75
2022/06/28 10:07:40;;;;;;;11.50;6.55;;;;;;;32.03;39.39;100650.59;5049045;28;20034;-74
2022/06/28 10:10:09;;;;;;;10.63;6.40;;;;;;;32.27;38.78;100650.63;5033461;28;20053;-75
2022/06/28 10:15:26;;;;;;;10.10;6.75;;;;;;;31.72;39.99;100661.16;5033027;28;20460;-73
2022/06/28 10:17:54;;;;;;;7.03;6.32;;;;;;;31.48;40.68;100665.47;5030278;28;20038;-73
2022/06/28 10:20:27;;;;;;;25.50;7.72;;;;;;;31.70;40.36;100672.19;5033076;28;20041;-73
2022/06/28 10:23:33;;;;;;;43.95;8.70;;;;;;;31.98;40.58;100670.13;5033092;28;20033;-74
2022/06/28 10:26:18;;;;;;;9.52;6.43;;;;;;;31.79;40.68;100686.66;5015501;28;20125;-74
2022/06/28 10:28:57;;;;;;;6.15;5.65;;;;;;;32.17;40.50;100681.72;5033485;28;20029;-75
2022/06/28 10:31:25;;;;;;;8.52;6.00;;;;;;;32.12;41.73;100691.22;5048705;28;20392;-73
2022/06/28 10:34:07;;;;;;;11.50;6.32;;;;;;;31.75;44.10;100693.44;5033016;28;20117;-76
2022/06/28 10:36:42;;;;;;;6.70;6.00;;;;;;;31.24;45.79;100692.44;5033198;28;20034;-74
2022/06/28 10:39:07;;;;;;;7.82;6.13;;;;;;;30.96;45.25;100692.59;5033229;28;20036;-73
2022/06/28 10:41:43;;;;;;;7.13;6.43;;;;;;;30.86;46.83;100692.69;5015292;28;20124;-74
2022/06/28 10:44:26;;;;;;;7.13;6.43;;;;;;;30.48;48.81;100699.22;5032948;28;20261;-73
2022/06/28 10:47:00;;;;;;;8.48;6.88;;;;;;;30.49;48.95;100703.66;5028921;28;20388;-73
2022/06/28 10:49:46;;;;;;;9.68;6.93;;;;;;;30.43;48.22;100715.13;5033379;28;20021;-73
2022/06/28 10:52:18;;;;;;;7.93;6.60;;;;;;;30.14;49.72;100737.81;5015328;28;20025;-71
2022/06/28 10:54:52;;;;;;;8.15;6.70;;;;;;;29.94;50.74;100739.75;5005467;28;20033;-74
2022/06/28 10:57:26;;;;;;;9.00;6.28;;;;;;;29.84;50.17;100732.69;5028619;28;20034;-75
2022/06/28 10:59:54;;;;;;;8.85;7.10;;;;;;;29.36;51.71;100722.84;5012233;28;20077;-73
2022/06/28 11:02:21;;;;;;;10.60;7.47;;;;;;;29.08;54.06;100730.88;5028802;28;20033;-73
2022/06/28 11:05:04;;;;;;;11.43;8.55;;;;;;;28.88;57.77;100724.59;5024483;28;20041;-71
2022/06/28 11:07:31;;;;;;;9.02;8.13;;;;;;;28.61;57.00;100733.44;5033072;28;20029;-72
2022/06/28 11:09:59;;;;;;;8.27;7.22;;;;;;;28.51;58.02;100726.31;5005064;28;20053;-72
2022/06/28 11:12:27;;;;;;;9.88;7.55;;;;;;;28.15;60.33;100724.06;5013087;28;20478;-72
2022/06/28 11:14:55;;;;;;;8.63;7.65;;;;;;;28.29;59.56;100732.75;5011930;28;20069;-71
2022/06/28 11:17:34;;;;;;;9.57;7.30;;;;;;;28.38;61.67;100759.84;5012943;28;20038;-72
2022/06/28 11:20:03;;;;;;;10.90;8.82;;;;;;;28.79;59.30;100759.75;5012323;28;20038;-73
2022/06/28 11:22:36;;;;;;;12.85;8.90;;;;;;;28.86;59.84;100769.88;5015705;28;20040;-72
2022/06/28 11:25:04;;;;;;;11.25;8.13;;;;;;;29.06;58.72;100786.97;4998423;28;20061;-72
2022/06/28 11:27:31;;;;;;;9.85;8.85;;;;;;;28.83;59.77;100782.81;5015422;28;20037;-73
2022/06/28 11:29:59;;;;;;;10.30;9.40;;;;;;;28.93;60.47;100797.19;5016508;28;20545;-72
2022/06/28 11:32:27;;;;;;;11.75;9.07;;;;;;;28.96;59.49;100791.50;5015632;28;20485;-73
2022/06/28 11:34:54;;;;;;;9.95;9.02;;;;;;;29.04;58.77;100791.66;5016229;28;20069;-73
2022/06/28 11:37:20;;;;;;;9.82;8.82;;;;;;;28.94;58.95;100804.31;4998733;28;20398;-72
2022/06/28 11:39:46;;;;;;;10.35;9.32;;;;;;;28.52;60.19;100807.22;4998813;28;20047;-72
2022/06/28 11:42:13;;;;;;;11.10;8.85;;;;;;;28.41;60.24;100802.81;4998462;28;20585;-70
2022/06/28 11:44:39;;;;;;;9.50;8.55;;;;;;;28.20;60.18;100834.41;5015434;28;20429;-70